createdAt,value
2023-03-03T00:04:33.748Z,0.99
2023-03-03T00:08:00.065Z,0.94
2023-03-03T00:19:27.068Z,0.98
2023-03-03T00:23:00.340Z,0.93
2023-03-03T00:30:21.328Z,0.91
2023-03-03T00:33:57.792Z,0.89
2023-03-03T00:40:55.563Z,0.83
2023-03-03T00:44:20.956Z,0.81
2023-03-03T00:47:46.092Z,0.78
2023-03-03T00:54:29.171Z,0.76
2023-03-03T00:57:37.786Z,0.76
2023-03-03T01:00:56.563Z,0.77
2023-03-03T01:04:25.758Z,0.80
2023-03-03T01:07:53.632Z,0.81
2023-03-03T01:11:41.239Z,0.83
2023-03-03T01:15:05.427Z,0.78
2023-03-03T01:18:29.581Z,0.75
2023-03-03T01:25:23.745Z,0.75
2023-03-03T01:28:55.319Z,0.68
2023-03-03T01:32:12.188Z,0.69
2023-03-03T01:35:40.058Z,0.66
2023-03-03T01:39:02.154Z,0.65
2023-03-03T01:42:23.788Z,0.64
2023-03-03T01:45:50.929Z,0.63
2023-03-03T01:49:47.681Z,0.63
2023-03-03T01:53:03.489Z,0.61
2023-03-03T02:00:10.075Z,0.60
2023-03-03T02:07:22.825Z,0.62
2023-03-03T02:10:42.825Z,0.55
2023-03-03T02:13:59.948Z,0.51
2023-03-03T02:17:25.563Z,0.50
2023-03-03T02:21:11.217Z,0.46
2023-03-03T02:24:53.984Z,0.47
2023-03-03T02:28:30.159Z,0.43
2023-03-03T02:31:56.262Z,0.38
2023-03-03T02:35:27.777Z,0.35
2023-03-03T02:39:30.027Z,0.32
2023-03-03T02:42:55.553Z,0.28
2023-03-03T02:46:50.834Z,0.22
2023-03-03T02:50:18.938Z,0.19
2023-03-03T02:53:52.548Z,0.17
2023-03-03T02:57:13.671Z,0.14
2023-03-03T03:01:02.761Z,0.10
2023-03-03T03:04:31.266Z,0.06
2023-03-03T03:08:03.089Z,0.03
2023-03-03T03:11:46.418Z,0.00
2023-03-03T03:15:24.645Z,-0.01
2023-03-03T03:18:48.124Z,0.00
2023-03-03T03:22:06.517Z,0.01
2023-03-03T03:25:20.313Z,0.02
2023-03-03T03:28:38.178Z,0.04
2023-03-03T03:31:57.364Z,0.06
2023-03-03T03:35:36.285Z,0.08
2023-03-03T03:39:02.430Z,0.06
2023-03-03T03:42:26.187Z,0.05
2023-03-03T03:45:42.251Z,0.03
2023-03-03T03:53:06.507Z,0.07
2023-03-03T03:56:25.464Z,0.03
2023-03-03T03:59:43.912Z,0.07
2023-03-03T04:02:56.430Z,0.13
2023-03-03T04:06:39.253Z,0.17
2023-03-03T04:10:08.942Z,0.23
2023-03-03T04:17:12.713Z,0.41
2023-03-03T04:24:37.316Z,0.65
2023-03-03T04:27:58.049Z,0.80
2023-03-03T04:34:38.366Z,1.04
2023-03-03T04:42:30.093Z,1.34
2023-03-03T04:45:54.285Z,1.35
2023-03-03T04:49:47.732Z,1.45
2023-03-03T04:57:36.213Z,1.69
2023-03-03T05:01:08.870Z,1.70
2023-03-03T05:04:28.957Z,1.78
2023-03-03T05:11:56.890Z,1.95
2023-03-03T05:15:19.226Z,2.03
2023-03-03T05:19:01.643Z,2.10
2023-03-03T05:22:31.919Z,2.16
2023-03-03T05:25:58.551Z,2.21
2023-03-03T05:52:01.262Z,2.68
2023-03-03T06:10:03.066Z,2.77
2023-03-03T06:17:37.815Z,2.85
2023-03-03T06:21:48.617Z,2.86
2023-03-03T06:25:27.450Z,2.88
2023-03-03T06:58:55.739Z,3.59
2023-03-03T07:06:54.071Z,3.82
2023-03-03T07:10:31.461Z,3.96
2023-03-03T07:24:53.892Z,4.38
2023-03-03T07:32:26.129Z,4.49
2023-03-03T07:46:38.100Z,5.04
2023-03-03T07:49:57.504Z,5.13
2023-03-03T09:51:03.656Z,7.01
2023-03-03T09:54:56.077Z,7.03
2023-03-03T10:07:03.840Z,7.43
2023-03-03T10:10:26.568Z,7.49
2023-03-03T10:14:25.989Z,7.61
2023-03-03T10:18:12.408Z,7.49
2023-03-03T10:21:59.952Z,7.45
2023-03-03T10:25:59.387Z,7.47
2023-03-03T10:29:47.311Z,7.45
2023-03-03T10:34:08.853Z,7.50
2023-03-03T10:41:52.523Z,7.24
2023-03-03T10:45:21.423Z,7.08
2023-03-03T10:49:26.569Z,7.04
2023-03-03T10:53:07.121Z,7.03
2023-03-03T11:01:24.732Z,6.83
2023-03-03T11:04:52.574Z,6.85
2023-03-03T11:08:31.241Z,6.77
2023-03-03T11:16:37.897Z,6.62
2023-03-03T11:20:19.522Z,6.67
2023-03-03T11:24:06.035Z,6.80
2023-03-03T11:35:03.190Z,6.89
2023-03-03T11:43:38.863Z,6.81
2023-03-03T11:51:38.486Z,6.67
2023-03-03T11:55:41.421Z,6.60
2023-03-03T12:06:46.679Z,6.39
2023-03-03T12:10:53.352Z,6.37
2023-03-03T12:14:45.854Z,6.29
2023-03-03T12:35:49.688Z,5.80
2023-03-03T12:39:41.724Z,5.76
2023-03-03T12:43:30.052Z,5.66
2023-03-03T12:47:05.501Z,5.59
2023-03-03T12:50:39.951Z,5.55
2023-03-03T13:02:14.750Z,5.69
2023-03-03T13:06:21.784Z,5.62
2023-03-03T13:09:53.294Z,5.53
2023-03-03T13:13:59.351Z,5.51
2023-03-03T13:32:19.094Z,5.21
2023-03-03T13:36:11.747Z,5.11
2023-03-03T13:39:36.126Z,5.09
2023-03-03T13:43:19.933Z,5.10
2023-03-03T14:02:28.159Z,5.11
2023-03-03T14:06:09.582Z,5.04
2023-03-03T14:24:42.309Z,5.04
2023-03-03T14:28:15.757Z,4.95
2023-03-03T14:31:39.949Z,4.94
2023-03-03T14:38:59.861Z,4.95
2023-03-03T14:42:22.099Z,4.92
2023-03-03T14:45:58.910Z,4.87
2023-03-03T14:49:15.806Z,4.80
2023-03-03T14:52:55.852Z,4.72
2023-03-03T14:56:54.054Z,4.68
2023-03-03T15:00:41.074Z,4.65
2023-03-03T15:04:32.847Z,4.63
2023-03-03T15:08:16.234Z,4.63
2023-03-03T15:11:44.632Z,4.56
2023-03-03T15:15:24.293Z,4.52
2023-03-03T15:19:45.414Z,4.51
2023-03-03T15:23:11.314Z,4.49
2023-03-03T15:27:11.156Z,4.49
2023-03-03T15:30:49.738Z,4.45
2023-03-03T15:34:34.049Z,4.39
2023-03-03T15:38:26.592Z,4.36
2023-03-03T15:42:17.717Z,4.33
2023-03-03T15:45:58.330Z,4.26
2023-03-03T15:49:38.492Z,4.22
2023-03-03T15:53:52.586Z,4.22
2023-03-03T16:01:41.537Z,4.18
2023-03-03T16:09:22.722Z,4.10
2023-03-03T16:17:01.674Z,4.17
2023-03-03T16:20:44.403Z,4.09
2023-03-03T16:24:17.907Z,4.06
2023-03-03T16:28:13.347Z,4.04
2023-03-03T16:32:01.864Z,4.01
2023-03-03T16:35:58.719Z,3.98
2023-03-03T16:39:35.221Z,3.97
2023-03-03T16:42:57.166Z,3.99
2023-03-03T16:46:44.877Z,3.99
2023-03-03T16:50:07.245Z,3.96
2023-03-03T16:54:00.692Z,3.92
2023-03-03T16:57:33.709Z,3.89
2023-03-03T17:01:23.064Z,3.87
2023-03-03T17:05:05.980Z,3.85
2023-03-03T17:08:50.979Z,3.83
2023-03-03T17:17:15.000Z,3.86
2023-03-03T17:24:58.730Z,3.79
2023-03-03T17:29:02.602Z,3.72
2023-03-03T17:32:37.834Z,3.70
2023-03-03T17:36:04.094Z,3.69
2023-03-03T17:39:38.416Z,3.68
2023-03-03T17:43:40.572Z,3.65
2023-03-03T17:47:08.550Z,3.62
2023-03-03T17:50:54.032Z,3.61
2023-03-03T17:54:54.561Z,3.62
2023-03-03T17:58:52.493Z,3.65
2023-03-03T18:03:04.089Z,3.61
2023-03-03T18:11:10.792Z,3.54
2023-03-03T18:14:46.424Z,3.54
2023-03-03T18:18:32.950Z,3.54
2023-03-03T18:22:37.320Z,3.55
2023-03-03T18:26:25.454Z,3.57
2023-03-03T18:30:00.714Z,3.59
2023-03-03T18:33:27.195Z,3.60
2023-03-03T18:36:59.511Z,3.63
2023-03-03T18:40:36.192Z,3.63
2023-03-03T18:44:05.707Z,3.63
2023-03-03T18:47:21.148Z,3.63
2023-03-03T18:50:50.507Z,3.62
2023-03-03T18:53:46.122Z,3.59
2023-03-03T18:57:16.958Z,3.58
2023-03-03T19:04:18.748Z,3.59
2023-03-03T19:08:07.833Z,3.59
2023-03-03T19:12:12.661Z,3.58
2023-03-03T19:15:59.213Z,3.55
2023-03-03T19:19:36.774Z,3.53
2023-03-03T19:23:11.815Z,3.52
2023-03-03T19:27:00.113Z,3.49
2023-03-03T19:30:52.366Z,3.49
2023-03-03T19:38:21.452Z,3.60
2023-03-03T19:42:10.211Z,3.55
2023-03-03T19:45:55.904Z,3.54
2023-03-03T19:49:32.792Z,3.53
2023-03-03T19:52:55.044Z,3.52
2023-03-03T19:56:37.824Z,3.50
2023-03-03T20:00:07.350Z,3.51
2023-03-03T20:04:05.562Z,3.51
2023-03-03T20:08:01.360Z,3.51
2023-03-03T20:11:43.091Z,3.50
2023-03-03T20:15:45.881Z,3.51
2023-03-03T20:19:29.731Z,3.52
2023-03-03T20:23:40.407Z,3.50
2023-03-03T20:27:20.365Z,3.51
2023-03-03T20:31:14.683Z,3.46
2023-03-03T20:35:10.046Z,3.46
2023-03-03T20:38:41.823Z,3.46
2023-03-03T20:42:25.861Z,3.44
2023-03-03T20:45:58.453Z,3.45
2023-03-03T20:49:49.573Z,3.44
2023-03-03T20:53:16.462Z,3.40
2023-03-03T21:00:30.538Z,3.45
2023-03-03T21:03:58.590Z,3.38
2023-03-03T21:10:34.809Z,3.47
2023-03-03T21:14:04.637Z,3.42
2023-03-03T21:17:27.545Z,3.43
2023-03-03T21:24:41.944Z,3.44
2023-03-03T21:28:06.156Z,3.37
2023-03-03T21:34:58.396Z,3.41
2023-03-03T21:38:16.889Z,3.36
2023-03-03T21:41:45.882Z,3.39
2023-03-03T21:48:44.700Z,3.47
2023-03-03T21:51:53.333Z,3.43
2023-03-03T21:55:11.077Z,3.43
2023-03-03T21:58:30.323Z,3.41
2023-03-03T22:06:02.296Z,3.44
2023-03-03T22:09:28.036Z,3.39
2023-03-03T22:12:52.042Z,3.41
2023-03-03T22:16:19.705Z,3.43
2023-03-03T22:19:50.455Z,3.44
2023-03-03T22:23:10.111Z,3.45
2023-03-03T22:26:33.675Z,3.47
2023-03-03T22:29:53.376Z,3.49
2023-03-03T22:33:18.599Z,3.49
2023-03-03T22:36:33.181Z,3.47
2023-03-03T22:43:35.493Z,3.54
2023-03-03T22:46:49.221Z,3.49
2023-03-03T22:50:09.831Z,3.46
2023-03-03T22:53:27.475Z,3.46
2023-03-03T23:00:15.034Z,3.50
2023-03-03T23:03:34.151Z,3.45
2023-03-03T23:06:51.456Z,3.47
2023-03-03T23:14:01.491Z,3.48
2023-03-03T23:17:27.608Z,3.41
2023-03-03T23:20:53.653Z,3.40
2023-03-03T23:28:01.075Z,3.39
2023-03-03T23:31:17.393Z,3.31
2023-03-03T23:38:13.516Z,3.33
2023-03-03T23:41:32.826Z,3.26
2023-03-03T23:44:49.833Z,3.25
2023-03-03T23:48:11.562Z,3.23
2023-03-03T23:51:39.333Z,3.17
2023-03-03T23:58:16.415Z,3.08
